SHT22A EGLL-EGJB
Flight info
| Callsign | SHT22A |
|---|---|
| Flight time | 0h 33m |
| Altitude | 18000 |
| Route | GASGU N514 EVTES N621 SAM N63 LELNA |
| Aircraft | A319/M-SDE3FGHIRWY/LB1 |
Departure
| Time | 2026-05-07 15:07 |
|---|---|
| Airport | London Heathrow Airport (EGLL) |
Arrival
| Time | 2026-05-07 15:40 |
|---|---|
| Airport | Guernsey Airport (EGJB) |
| Time | Latitude | Longitude | Altitude | Speed | Heading |
|---|---|---|---|---|---|
| 2026-05-07 14:32 | 51.46938 | -0.47182 | 87 ft | 0 kts | 90° |
| 2026-05-07 14:57 | 51.46938 | -0.47205 | 90 ft | 4 kts | 90° |
| 2026-05-07 14:57 | 51.46938 | -0.47248 | 87 ft | 4 kts | 91° |
| 2026-05-07 14:57 | 51.46940 | -0.47292 | 87 ft | 4 kts | 96° |
| 2026-05-07 14:58 | 51.46948 | -0.47345 | 89 ft | 4 kts | 140° |
| 2026-05-07 14:58 | 51.46956 | -0.47354 | 89 ft | 0 kts | 180° |
| 2026-05-07 15:01 | 51.46943 | -0.47353 | 89 ft | 5 kts | 180° |
| 2026-05-07 15:01 | 51.46892 | -0.47353 | 87 ft | 10 kts | 180° |
| 2026-05-07 15:01 | 51.46814 | -0.47352 | 87 ft | 8 kts | 179° |
| 2026-05-07 15:02 | 51.46752 | -0.47378 | 89 ft | 11 kts | 234° |
| 2026-05-07 15:02 | 51.46744 | -0.47513 | 87 ft | 14 kts | 269° |
| 2026-05-07 15:02 | 51.46744 | -0.47677 | 87 ft | 10 kts | 269° |
| 2026-05-07 15:02 | 51.46744 | -0.47807 | 87 ft | 13 kts | 270° |
| 2026-05-07 15:03 | 51.46743 | -0.47963 | 87 ft | 12 kts | 270° |
| 2026-05-07 15:03 | 51.46742 | -0.48113 | 87 ft | 15 kts | 270° |
| 2026-05-07 15:03 | 51.46742 | -0.48296 | 87 ft | 18 kts | 270° |
| 2026-05-07 15:03 | 51.46742 | -0.48437 | 87 ft | 7 kts | 270° |
| 2026-05-07 15:04 | 51.46739 | -0.48455 | 87 ft | 2 kts | 245° |
| 2026-05-07 15:04 | 51.46719 | -0.48470 | 88 ft | 4 kts | 187° |
| 2026-05-07 15:04 | 51.46680 | -0.48468 | 87 ft | 7 kts | 177° |
| 2026-05-07 15:04 | 51.46621 | -0.48470 | 87 ft | 10 kts | 181° |
| 2026-05-07 15:05 | 51.46546 | -0.48470 | 89 ft | 12 kts | 180° |
| 2026-05-07 15:05 | 51.46483 | -0.48409 | 91 ft | 13 kts | 111° |
| 2026-05-07 15:05 | 51.46478 | -0.48328 | 89 ft | 0 kts | 90° |
| 2026-05-07 15:06 | 51.46478 | -0.48234 | 89 ft | 32 kts | 90° |
| 2026-05-07 15:06 | 51.46480 | -0.47518 | 86 ft | 95 kts | 89° |
| 2026-05-07 15:06 | 51.46485 | -0.46145 | 92 ft | 150 kts | 90° |
| 2026-05-07 15:07 | 51.46489 | -0.44460 | 712 ft | 152 kts | 89° |
| 2026-05-07 15:07 | 51.46514 | -0.42729 | 1420 ft | 158 kts | 89° |
| 2026-05-07 15:07 | 51.46234 | -0.40934 | 1849 ft | 181 kts | 122° |
| 2026-05-07 15:07 | 51.45449 | -0.39133 | 2216 ft | 214 kts | 126° |
| 2026-05-07 15:08 | 51.44514 | -0.37027 | 2593 ft | 248 kts | 126° |
| 2026-05-07 15:08 | 51.43454 | -0.34810 | 2945 ft | 257 kts | 136° |
| 2026-05-07 15:08 | 51.41959 | -0.33257 | 3304 ft | 258 kts | 160° |
| 2026-05-07 15:08 | 51.40200 | -0.32810 | 3691 ft | 259 kts | 184° |
| 2026-05-07 15:09 | 51.38481 | -0.33520 | 4073 ft | 259 kts | 207° |
| 2026-05-07 15:09 | 51.37037 | -0.35241 | 4435 ft | 260 kts | 223° |
| 2026-05-07 15:09 | 51.35697 | -0.37191 | 4804 ft | 261 kts | 223° |
| 2026-05-07 15:09 | 51.34430 | -0.39266 | 5155 ft | 262 kts | 234° |
| 2026-05-07 15:10 | 51.33429 | -0.41735 | 5662 ft | 269 kts | 237° |
| 2026-05-07 15:10 | 51.32423 | -0.44248 | 6807 ft | 269 kts | 237° |
| 2026-05-07 15:10 | 51.31409 | -0.46775 | 7884 ft | 272 kts | 237° |
| 2026-05-07 15:10 | 51.30378 | -0.49338 | 8947 ft | 276 kts | 236° |
| 2026-05-07 15:11 | 51.29331 | -0.51932 | 10010 ft | 280 kts | 236° |
| 2026-05-07 15:11 | 51.28241 | -0.54623 | 10612 ft | 300 kts | 236° |
| 2026-05-07 15:11 | 51.27061 | -0.57534 | 11021 ft | 323 kts | 236° |
| 2026-05-07 15:11 | 51.25817 | -0.60607 | 11687 ft | 334 kts | 236° |
| 2026-05-07 15:12 | 51.24542 | -0.63758 | 12515 ft | 340 kts | 236° |
| 2026-05-07 15:12 | 51.23254 | -0.66943 | 13351 ft | 344 kts | 236° |
| 2026-05-07 15:12 | 51.21943 | -0.70180 | 14156 ft | 349 kts | 236° |
| 2026-05-07 15:12 | 51.20620 | -0.73446 | 14910 ft | 352 kts | 236° |
| 2026-05-07 15:13 | 51.19283 | -0.76739 | 15686 ft | 355 kts | 236° |
| 2026-05-07 15:13 | 51.17932 | -0.80054 | 16457 ft | 358 kts | 236° |
| 2026-05-07 15:13 | 51.16569 | -0.83397 | 17243 ft | 361 kts | 237° |
| 2026-05-07 15:13 | 51.15196 | -0.86766 | 17852 ft | 364 kts | 237° |
| 2026-05-07 15:14 | 51.13816 | -0.90150 | 18026 ft | 365 kts | 237° |
| 2026-05-07 15:14 | 51.12403 | -0.93608 | 18059 ft | 377 kts | 237° |
| 2026-05-07 15:14 | 51.10960 | -0.97122 | 18053 ft | 380 kts | 237° |
| 2026-05-07 15:14 | 51.09530 | -1.00600 | 18057 ft | 381 kts | 237° |
| 2026-05-07 15:15 | 51.08079 | -1.04131 | 18054 ft | 381 kts | 237° |
| 2026-05-07 15:15 | 51.06633 | -1.07655 | 18059 ft | 380 kts | 237° |
| 2026-05-07 15:15 | 51.05187 | -1.11175 | 18062 ft | 380 kts | 237° |
| 2026-05-07 15:15 | 51.03741 | -1.14692 | 18056 ft | 381 kts | 237° |
| 2026-05-07 15:16 | 51.02288 | -1.18215 | 18060 ft | 381 kts | 236° |
| 2026-05-07 15:16 | 51.00832 | -1.21728 | 18057 ft | 381 kts | 236° |
| 2026-05-07 15:16 | 50.99376 | -1.25229 | 18056 ft | 381 kts | 236° |
| 2026-05-07 15:16 | 50.97916 | -1.28737 | 18056 ft | 381 kts | 236° |
| 2026-05-07 15:17 | 50.96336 | -1.32106 | 18057 ft | 380 kts | 228° |
| 2026-05-07 15:17 | 50.94400 | -1.34962 | 18055 ft | 380 kts | 218° |
| 2026-05-07 15:17 | 50.92158 | -1.37198 | 18053 ft | 381 kts | 208° |
| 2026-05-07 15:17 | 50.89789 | -1.39083 | 18052 ft | 381 kts | 207° |
| 2026-05-07 15:18 | 50.87422 | -1.40966 | 18050 ft | 381 kts | 207° |
| 2026-05-07 15:18 | 50.85055 | -1.42850 | 18048 ft | 381 kts | 207° |
| 2026-05-07 15:18 | 50.82688 | -1.44737 | 18046 ft | 381 kts | 207° |
| 2026-05-07 15:18 | 50.80324 | -1.46623 | 18050 ft | 381 kts | 207° |
| 2026-05-07 15:19 | 50.77956 | -1.48513 | 18053 ft | 381 kts | 207° |
| 2026-05-07 15:19 | 50.75584 | -1.50404 | 18050 ft | 381 kts | 207° |
| 2026-05-07 15:19 | 50.73217 | -1.52286 | 18056 ft | 381 kts | 207° |
| 2026-05-07 15:19 | 50.70843 | -1.54168 | 18059 ft | 381 kts | 207° |
| 2026-05-07 15:20 | 50.68476 | -1.56040 | 18063 ft | 381 kts | 207° |
| 2026-05-07 15:20 | 50.66101 | -1.57915 | 18065 ft | 381 kts | 207° |
| 2026-05-07 15:20 | 50.63730 | -1.59785 | 18062 ft | 381 kts | 207° |
| 2026-05-07 15:20 | 50.61354 | -1.61655 | 18067 ft | 381 kts | 207° |
| 2026-05-07 15:21 | 50.59013 | -1.63497 | 18066 ft | 381 kts | 207° |
| 2026-05-07 15:21 | 50.56644 | -1.65363 | 18068 ft | 381 kts | 207° |
| 2026-05-07 15:21 | 50.54275 | -1.67225 | 18070 ft | 381 kts | 207° |
| 2026-05-07 15:21 | 50.51909 | -1.69082 | 18070 ft | 380 kts | 207° |
| 2026-05-07 15:22 | 50.49544 | -1.70940 | 18066 ft | 380 kts | 207° |
| 2026-05-07 15:22 | 50.47180 | -1.72792 | 18066 ft | 380 kts | 207° |
| 2026-05-07 15:22 | 50.44804 | -1.74647 | 18067 ft | 380 kts | 207° |
| 2026-05-07 15:22 | 50.42440 | -1.76494 | 18066 ft | 380 kts | 207° |
| 2026-05-07 15:23 | 50.40076 | -1.78339 | 18062 ft | 380 kts | 207° |
| 2026-05-07 15:23 | 50.37709 | -1.80184 | 18067 ft | 380 kts | 207° |
| 2026-05-07 15:23 | 50.35339 | -1.82027 | 18063 ft | 380 kts | 207° |
| 2026-05-07 15:23 | 50.32971 | -1.83864 | 18063 ft | 380 kts | 207° |
| 2026-05-07 15:24 | 50.30601 | -1.85704 | 18064 ft | 380 kts | 207° |
| 2026-05-07 15:24 | 50.28237 | -1.87541 | 18063 ft | 380 kts | 207° |
| 2026-05-07 15:24 | 50.25871 | -1.89376 | 18059 ft | 379 kts | 207° |
| 2026-05-07 15:24 | 50.23509 | -1.91207 | 18062 ft | 379 kts | 207° |
| 2026-05-07 15:25 | 50.21144 | -1.93041 | 18054 ft | 379 kts | 207° |
| 2026-05-07 15:25 | 50.18777 | -1.94874 | 18060 ft | 379 kts | 207° |
| 2026-05-07 15:25 | 50.16411 | -1.96699 | 18057 ft | 379 kts | 207° |
| 2026-05-07 15:25 | 50.14072 | -1.98499 | 18053 ft | 379 kts | 207° |
| 2026-05-07 15:26 | 50.11709 | -2.00314 | 18055 ft | 379 kts | 207° |
| 2026-05-07 15:26 | 50.09344 | -2.02130 | 18051 ft | 379 kts | 207° |
| 2026-05-07 15:26 | 50.06978 | -2.03949 | 18046 ft | 379 kts | 207° |
| 2026-05-07 15:26 | 50.04618 | -2.05761 | 18051 ft | 379 kts | 207° |
| 2026-05-07 15:27 | 50.02253 | -2.07575 | 18048 ft | 379 kts | 207° |
| 2026-05-07 15:27 | 49.99911 | -2.09429 | 18043 ft | 378 kts | 211° |
| 2026-05-07 15:27 | 49.97767 | -2.11798 | 18037 ft | 378 kts | 221° |
| 2026-05-07 15:27 | 49.95923 | -2.14712 | 18038 ft | 378 kts | 229° |
| 2026-05-07 15:28 | 49.94186 | -2.17763 | 18034 ft | 377 kts | 228° |
| 2026-05-07 15:28 | 49.92443 | -2.20816 | 18030 ft | 377 kts | 228° |
| 2026-05-07 15:28 | 49.90705 | -2.23853 | 17956 ft | 373 kts | 228° |
| 2026-05-07 15:28 | 49.88992 | -2.26840 | 17333 ft | 369 kts | 228° |
| 2026-05-07 15:29 | 49.87299 | -2.29788 | 16778 ft | 363 kts | 228° |
| 2026-05-07 15:29 | 49.85633 | -2.32689 | 16222 ft | 357 kts | 228° |
| 2026-05-07 15:29 | 49.83993 | -2.35537 | 15671 ft | 351 kts | 228° |
| 2026-05-07 15:29 | 49.82367 | -2.38359 | 14823 ft | 354 kts | 228° |
| 2026-05-07 15:30 | 49.80716 | -2.41225 | 13908 ft | 359 kts | 228° |
| 2026-05-07 15:30 | 49.79049 | -2.44121 | 12956 ft | 358 kts | 227° |
| 2026-05-07 15:30 | 49.77454 | -2.46890 | 12676 ft | 330 kts | 227° |
| 2026-05-07 15:30 | 49.75986 | -2.49435 | 12536 ft | 304 kts | 227° |
| 2026-05-07 15:31 | 49.74613 | -2.51821 | 11954 ft | 295 kts | 228° |
| 2026-05-07 15:31 | 49.73247 | -2.54291 | 11448 ft | 301 kts | 228° |
| 2026-05-07 15:31 | 49.71924 | -2.56717 | 10999 ft | 290 kts | 229° |
| 2026-05-07 15:31 | 49.70654 | -2.59065 | 10555 ft | 280 kts | 228° |
| 2026-05-07 15:32 | 49.69425 | -2.61361 | 10114 ft | 275 kts | 228° |
| 2026-05-07 15:32 | 49.68222 | -2.63628 | 9640 ft | 272 kts | 229° |
| 2026-05-07 15:32 | 49.67030 | -2.65886 | 9164 ft | 271 kts | 229° |
| 2026-05-07 15:32 | 49.65832 | -2.68150 | 8684 ft | 273 kts | 228° |
| 2026-05-07 15:33 | 49.64628 | -2.70427 | 8212 ft | 275 kts | 229° |
| 2026-05-07 15:33 | 49.63419 | -2.72711 | 7750 ft | 275 kts | 229° |
| 2026-05-07 15:33 | 49.62201 | -2.75009 | 7295 ft | 276 kts | 229° |
| 2026-05-07 15:33 | 49.60990 | -2.77290 | 6921 ft | 274 kts | 229° |
| 2026-05-07 15:34 | 49.59785 | -2.79558 | 6552 ft | 272 kts | 229° |
| 2026-05-07 15:34 | 49.58601 | -2.81782 | 6171 ft | 271 kts | 229° |
| 2026-05-07 15:34 | 49.57412 | -2.84014 | 5770 ft | 266 kts | 228° |
| 2026-05-07 15:34 | 49.56261 | -2.86175 | 5385 ft | 256 kts | 227° |
| 2026-05-07 15:35 | 49.54929 | -2.87805 | 5235 ft | 235 kts | 204° |
| 2026-05-07 15:35 | 49.53410 | -2.88490 | 5112 ft | 226 kts | 183° |
| 2026-05-07 15:35 | 49.51868 | -2.88241 | 4867 ft | 223 kts | 162° |
| 2026-05-07 15:35 | 49.50441 | -2.87327 | 4573 ft | 222 kts | 156° |
| 2026-05-07 15:36 | 49.49030 | -2.86383 | 4276 ft | 220 kts | 156° |
| 2026-05-07 15:36 | 49.47629 | -2.85452 | 3980 ft | 218 kts | 157° |
| 2026-05-07 15:36 | 49.46242 | -2.84532 | 3689 ft | 216 kts | 157° |
| 2026-05-07 15:36 | 49.44865 | -2.83620 | 3403 ft | 214 kts | 157° |
| 2026-05-07 15:37 | 49.43592 | -2.82528 | 3118 ft | 208 kts | 135° |
| 2026-05-07 15:37 | 49.42948 | -2.80601 | 2824 ft | 206 kts | 99° |
| 2026-05-07 15:37 | 49.43130 | -2.78428 | 2516 ft | 206 kts | 79° |
| 2026-05-07 15:37 | 49.43173 | -2.76321 | 2263 ft | 192 kts | 99° |
| 2026-05-07 15:38 | 49.43117 | -2.74298 | 1999 ft | 187 kts | 91° |
| 2026-05-07 15:38 | 49.43158 | -2.72336 | 1781 ft | 181 kts | 90° |
| 2026-05-07 15:38 | 49.43209 | -2.70436 | 1501 ft | 174 kts | 90° |
| 2026-05-07 15:38 | 49.43259 | -2.68638 | 1274 ft | 162 kts | 90° |
| 2026-05-07 15:39 | 49.43307 | -2.66967 | 1069 ft | 152 kts | 89° |
| 2026-05-07 15:39 | 49.43351 | -2.65403 | 854 ft | 142 kts | 89° |
| 2026-05-07 15:39 | 49.43392 | -2.63980 | 675 ft | 126 kts | 89° |
| 2026-05-07 15:39 | 49.43431 | -2.62683 | 476 ft | 119 kts | 88° |
| 2026-05-07 15:40 | 49.43465 | -2.61424 | 326 ft | 117 kts | 89° |
| 2026-05-07 15:40 | 49.43492 | -2.60394 | 334 ft | 62 kts | 88° |
| 2026-05-07 15:40 | 49.43503 | -2.59951 | 344 ft | 23 kts | 90° |
| 2026-05-07 15:40 | 49.43442 | -2.59861 | 344 ft | 10 kts | 178° |
| 2026-05-07 15:41 | 49.43360 | -2.59851 | 350 ft | 13 kts | 160° |
| 2026-05-07 15:41 | 49.43360 | -2.59721 | 349 ft | 10 kts | 71° |
| 2026-05-07 15:41 | 49.43332 | -2.59692 | 345 ft | 7 kts | 183° |
| 2026-05-07 15:41 | 49.43275 | -2.59689 | 345 ft | 5 kts | 178° |
| 2026-05-07 15:42 | 49.43260 | -2.59688 | 345 ft | 0 kts | 177° |